Time;durP1;ratioP1;P1;durP2;ratioP2;P2;SDS_P1;SDS_P2;PMS_P1;PMS_P2;Temp;Humidity;BMP_temperature;BMP_pressure;BME280_temperature;BME280_humidity;BME280_pressure;Samples;Min_cycle;Max_cycle;Signal;HPM_P1;HPM_P2
2021/10/23 00:00:27;;;;;;;2.42;1.83;;;;;;;;;;5100270;28;20058;-65
2021/10/23 00:02:53;;;;;;;2.47;1.75;;;;;;;;;;5104478;28;20031;-65
2021/10/23 00:05:18;;;;;;;2.50;1.85;;;;;;;;;;5103897;28;20054;-65
2021/10/23 00:07:44;;;;;;;2.40;1.70;;;;;;;;;;5104722;28;20043;-66
2021/10/23 00:10:10;;;;;;;2.70;2.13;;;;;;;;;;5106875;28;20089;-65
2021/10/23 00:12:36;;;;;;;2.80;2.08;;;;;;;;;;5106246;28;20060;-66
2021/10/23 00:15:03;;;;;;;2.50;2.08;;;;;;;;;;5102989;28;20344;-66
2021/10/23 00:17:28;;;;;;;2.30;1.50;;;;;;;;;;5102993;28;20050;-66
2021/10/23 00:19:56;;;;;;;2.42;1.83;;;;;;;;;;5107215;28;20032;-65
2021/10/23 00:22:22;;;;;;;2.25;1.60;;;;;;;;;;5105428;28;20047;-64
2021/10/23 00:24:47;;;;;;;2.42;1.80;;;;;;;;;;5103272;28;20043;-63
2021/10/23 00:27:12;;;;;;;3.22;2.05;;;;;;;;;;5107858;28;20037;-64
2021/10/23 00:29:38;;;;;;;3.97;2.78;;;;;;;;;;5104818;28;20050;-63
2021/10/23 00:32:03;;;;;;;2.63;2.08;;;;;;;;;;5100300;28;20063;-63
2021/10/23 00:34:29;;;;;;;3.55;1.95;;;;;;;;;;5105636;28;20116;-63
2021/10/23 00:36:54;;;;;;;2.20;1.55;;;;;;;;;;5084887;28;20024;-64
2021/10/23 00:39:20;;;;;;;3.25;2.10;;;;;;;;;;5101739;28;20043;-64
2021/10/23 00:41:45;;;;;;;3.08;2.15;;;;;;;;;;5106026;28;20039;-64
2021/10/23 00:44:35;;;;;;;2.30;1.65;;;;;;;;;;5104293;28;20027;-64
2021/10/23 00:47:13;;;;;;;3.10;2.20;;;;;;;;;;5101638;28;20130;-64
2021/10/23 00:49:39;;;;;;;2.70;2.00;;;;;;;;;;5106483;28;20042;-64
2021/10/23 00:52:07;;;;;;;2.38;1.65;;;;;;;;;;5105786;28;20051;-64
2021/10/23 00:54:33;;;;;;;2.45;1.83;;;;;;;;;;5103254;28;20065;-64
2021/10/23 00:57:00;;;;;;;2.47;1.83;;;;;;;;;;5102901;28;20115;-64
2021/10/23 00:59:26;;;;;;;2.75;2.05;;;;;;;;;;5104017;28;20357;-64
2021/10/23 01:01:53;;;;;;;2.30;1.60;;;;;;;;;;5107290;28;20153;-64
2021/10/23 01:04:23;;;;;;;6.20;2.20;;;;;;;;;;5106615;28;20030;-64
2021/10/23 01:06:49;;;;;;;2.50;1.95;;;;;;;;;;5103783;28;20365;-64
2021/10/23 01:09:17;;;;;;;2.63;1.95;;;;;;;;;;5101281;28;20035;-64
2021/10/23 01:11:43;;;;;;;2.47;1.80;;;;;;;;;;5104453;28;20089;-64
2021/10/23 01:14:27;;;;;;;4.55;2.10;;;;;;;;;;5102064;28;20031;-64
2021/10/23 01:16:55;;;;;;;2.30;1.60;;;;;;;;;;5102290;28;20035;-64
2021/10/23 01:19:21;;;;;;;2.88;2.45;;;;;;;;;;5099269;28;20040;-64
2021/10/23 01:21:49;;;;;;;2.60;1.95;;;;;;;;;;5102070;28;20036;-65
2021/10/23 01:24:15;;;;;;;3.17;2.38;;;;;;;;;;5099633;28;20104;-65
2021/10/23 01:26:41;;;;;;;2.40;1.83;;;;;;;;;;5104143;28;20039;-65
2021/10/23 01:29:09;;;;;;;2.40;1.85;;;;;;;;;;5105358;28;20036;-65
2021/10/23 01:31:35;;;;;;;2.38;1.60;;;;;;;;;;5104105;28;20098;-64
2021/10/23 01:34:21;;;;;;;2.50;1.90;;;;;;;;;;5100550;28;20054;-65
2021/10/23 01:36:59;;;;;;;2.50;1.90;;;;;;;;;;5087065;28;20031;-65
2021/10/23 01:39:26;;;;;;;4.57;2.45;;;;;;;;;;5103625;28;20046;-65
2021/10/23 01:41:53;;;;;;;2.63;1.90;;;;;;;;;;5103358;28;20058;-65
2021/10/23 01:44:24;;;;;;;2.50;1.70;;;;;;;;;;5104851;28;20031;-66
2021/10/23 01:46:49;;;;;;;2.38;1.67;;;;;;;;;;5100387;28;20388;-65
2021/10/23 01:49:14;;;;;;;2.40;1.75;;;;;;;;;;5101240;28;20031;-64
2021/10/23 01:51:40;;;;;;;2.50;1.88;;;;;;;;;;5102197;28;20059;-64
2021/10/23 01:54:08;;;;;;;2.50;1.75;;;;;;;;;;5104132;28;20042;-63
2021/10/23 01:56:36;;;;;;;2.20;1.60;;;;;;;;;;5108653;27;20028;-63
2021/10/23 01:59:02;;;;;;;2.65;2.10;;;;;;;;;;5109792;28;20032;-64
2021/10/23 02:01:27;;;;;;;4.47;2.25;;;;;;;;;;5105005;28;20077;-64
2021/10/23 02:03:53;;;;;;;2.70;1.75;;;;;;;;;;5105252;27;20120;-64
2021/10/23 02:06:18;;;;;;;2.88;2.10;;;;;;;;;;5110189;28;20046;-65
2021/10/23 02:08:44;;;;;;;2.30;1.67;;;;;;;;;;5109705;28;20475;-65
2021/10/23 02:11:10;;;;;;;3.97;2.67;;;;;;;;;;5106863;28;20036;-65
2021/10/23 02:13:35;;;;;;;2.47;1.83;;;;;;;;;;5108481;28;20074;-65
2021/10/23 02:16:01;;;;;;;2.50;1.70;;;;;;;;;;5110608;28;20062;-65
2021/10/23 02:18:27;;;;;;;2.67;1.85;;;;;;;;;;5097044;28;20069;-65
2021/10/23 02:20:53;;;;;;;2.50;1.80;;;;;;;;;;5107392;28;20040;-65
2021/10/23 02:23:19;;;;;;;2.78;1.95;;;;;;;;;;5110726;28;20395;-65
2021/10/23 02:25:44;;;;;;;2.15;1.50;;;;;;;;;;5108574;28;20024;-64
2021/10/23 02:28:09;;;;;;;3.38;2.35;;;;;;;;;;5108788;28;20051;-64
2021/10/23 02:30:35;;;;;;;2.25;1.67;;;;;;;;;;5110293;28;20081;-64
2021/10/23 02:33:00;;;;;;;3.30;1.92;;;;;;;;;;5111751;28;20453;-64
2021/10/23 02:35:26;;;;;;;3.30;2.42;;;;;;;;;;5112249;28;20043;-64
2021/10/23 02:37:51;;;;;;;2.58;1.92;;;;;;;;;;5110544;28;20019;-64
2021/10/23 02:40:17;;;;;;;3.53;2.30;;;;;;;;;;5112124;28;20053;-64
2021/10/23 02:42:42;;;;;;;2.58;1.85;;;;;;;;;;5109700;28;20036;-64
2021/10/23 02:45:09;;;;;;;2.70;2.03;;;;;;;;;;5109028;28;20078;-64
2021/10/23 02:47:35;;;;;;;2.90;2.00;;;;;;;;;;5108861;28;20089;-64
2021/10/23 02:50:00;;;;;;;2.63;1.70;;;;;;;;;;5108894;28;20031;-64
2021/10/23 02:52:26;;;;;;;5.95;2.33;;;;;;;;;;5106744;28;20085;-64
2021/10/23 02:54:51;;;;;;;2.40;1.80;;;;;;;;;;5109584;28;20070;-64
2021/10/23 02:57:17;;;;;;;5.10;2.22;;;;;;;;;;5111439;28;20026;-64
2021/10/23 02:59:43;;;;;;;3.20;2.22;;;;;;;;;;5105557;28;20032;-64
2021/10/23 03:02:09;;;;;;;2.40;1.60;;;;;;;;;;5112672;27;20110;-64
2021/10/23 03:04:34;;;;;;;2.80;1.90;;;;;;;;;;5106450;27;20521;-64
2021/10/23 03:07:00;;;;;;;2.50;1.67;;;;;;;;;;5105705;28;20040;-64
2021/10/23 03:09:25;;;;;;;4.25;2.33;;;;;;;;;;5106834;28;20065;-64
2021/10/23 03:11:50;;;;;;;2.70;1.90;;;;;;;;;;5108801;28;20109;-64
2021/10/23 03:14:16;;;;;;;2.60;1.80;;;;;;;;;;5103705;28;20456;-64
2021/10/23 03:16:41;;;;;;;7.55;1.92;;;;;;;;;;5104807;28;20027;-63
2021/10/23 03:19:07;;;;;;;2.75;2.00;;;;;;;;;;5107814;28;20032;-63
2021/10/23 03:21:32;;;;;;;2.70;2.03;;;;;;;;;;5106588;28;20068;-63
2021/10/23 03:23:58;;;;;;;2.50;1.90;;;;;;;;;;5103836;28;20028;-63
2021/10/23 03:26:23;;;;;;;2.60;1.92;;;;;;;;;;5106184;28;20342;-64
2021/10/23 03:28:48;;;;;;;2.70;2.15;;;;;;;;;;5089380;28;20039;-63
2021/10/23 03:31:14;;;;;;;2.60;1.90;;;;;;;;;;5108977;28;20034;-62
2021/10/23 03:33:39;;;;;;;5.25;2.35;;;;;;;;;;5104798;28;20074;-63
2021/10/23 03:36:05;;;;;;;2.28;1.70;;;;;;;;;;5104018;28;20539;-63
2021/10/23 03:38:31;;;;;;;2.70;2.22;;;;;;;;;;5107499;28;20019;-63
2021/10/23 03:40:57;;;;;;;2.40;1.73;;;;;;;;;;5104576;28;20052;-63
2021/10/23 03:43:23;;;;;;;2.60;2.00;;;;;;;;;;5108481;28;20059;-63
2021/10/23 03:45:48;;;;;;;2.60;1.90;;;;;;;;;;5107811;28;20038;-63
2021/10/23 03:48:14;;;;;;;2.40;1.70;;;;;;;;;;5102403;28;20107;-63
2021/10/23 03:50:39;;;;;;;4.25;2.00;;;;;;;;;;5087910;28;20027;-63
2021/10/23 03:53:04;;;;;;;2.90;1.95;;;;;;;;;;5092355;28;20024;-63
2021/10/23 03:55:30;;;;;;;2.65;2.00;;;;;;;;;;5102682;28;20630;-63
2021/10/23 03:57:55;;;;;;;3.00;2.10;;;;;;;;;;5107985;28;20051;-64
2021/10/23 04:00:21;;;;;;;2.47;1.80;;;;;;;;;;5103084;28;20034;-64
2021/10/23 04:02:47;;;;;;;3.10;2.10;;;;;;;;;;5104903;28;20046;-63
2021/10/23 04:05:12;;;;;;;2.60;1.60;;;;;;;;;;5104463;28;20036;-63
2021/10/23 04:07:38;;;;;;;3.83;2.30;;;;;;;;;;5087511;28;20098;-65
2021/10/23 04:10:05;;;;;;;2.92;1.98;;;;;;;;;;5106919;28;20023;-65
2021/10/23 04:12:31;;;;;;;2.50;1.90;;;;;;;;;;5104737;28;20100;-64
2021/10/23 04:14:59;;;;;;;3.58;2.15;;;;;;;;;;5107870;28;20449;-64
2021/10/23 04:17:24;;;;;;;4.03;2.38;;;;;;;;;;5106892;28;20024;-64
2021/10/23 04:19:50;;;;;;;3.10;2.00;;;;;;;;;;5105294;28;20047;-64
2021/10/23 04:22:16;;;;;;;15.00;2.03;;;;;;;;;;5103423;28;20071;-64
2021/10/23 04:24:41;;;;;;;2.17;1.48;;;;;;;;;;5105142;28;20051;-64
2021/10/23 04:27:07;;;;;;;2.75;1.90;;;;;;;;;;5105344;28;20089;-64
2021/10/23 04:29:32;;;;;;;3.38;2.20;;;;;;;;;;5104232;28;20043;-64
2021/10/23 04:31:57;;;;;;;2.70;2.20;;;;;;;;;;5105926;28;20035;-63
2021/10/23 04:34:23;;;;;;;2.53;2.00;;;;;;;;;;5102648;28;20046;-64
2021/10/23 04:36:49;;;;;;;3.15;2.25;;;;;;;;;;5101525;28;20116;-63
2021/10/23 04:39:15;;;;;;;2.58;2.00;;;;;;;;;;5101528;28;20610;-63
2021/10/23 04:41:41;;;;;;;2.22;1.58;;;;;;;;;;5099720;28;20434;-64
2021/10/23 04:44:07;;;;;;;2.60;1.88;;;;;;;;;;5104754;28;20131;-63
2021/10/23 04:46:32;;;;;;;2.35;1.77;;;;;;;;;;5104504;28;20032;-63
2021/10/23 04:48:58;;;;;;;2.45;1.70;;;;;;;;;;5105162;28;20055;-66
2021/10/23 04:51:23;;;;;;;2.55;1.88;;;;;;;;;;5105969;28;20028;-65
2021/10/23 04:53:50;;;;;;;2.83;2.13;;;;;;;;;;5102490;28;20028;-65
2021/10/23 04:56:16;;;;;;;2.40;1.63;;;;;;;;;;5102367;28;20464;-65
2021/10/23 04:58:42;;;;;;;2.40;1.70;;;;;;;;;;5104164;28;20438;-64
2021/10/23 05:01:07;;;;;;;3.20;2.17;;;;;;;;;;5103480;28;20027;-63
2021/10/23 05:03:33;;;;;;;2.70;2.17;;;;;;;;;;5106068;28;20028;-63
2021/10/23 05:05:58;;;;;;;2.50;1.80;;;;;;;;;;5104255;28;20035;-63
2021/10/23 05:08:24;;;;;;;4.45;1.83;;;;;;;;;;5104525;28;20029;-63
2021/10/23 05:10:50;;;;;;;2.40;1.70;;;;;;;;;;5106953;28;20085;-63
2021/10/23 05:13:15;;;;;;;2.53;2.03;;;;;;;;;;5102328;28;20051;-63
2021/10/23 05:15:41;;;;;;;2.40;1.70;;;;;;;;;;5083684;28;20032;-63
2021/10/23 05:18:06;;;;;;;2.40;1.75;;;;;;;;;;5106753;28;20036;-63
2021/10/23 05:20:32;;;;;;;2.40;1.83;;;;;;;;;;5103408;28;20680;-63
2021/10/23 05:22:57;;;;;;;3.67;2.47;;;;;;;;;;5102510;28;20027;-63
2021/10/23 05:25:23;;;;;;;2.50;1.70;;;;;;;;;;5099425;28;20445;-64
2021/10/23 05:27:48;;;;;;;5.60;1.92;;;;;;;;;;5104159;28;20433;-63
2021/10/23 05:30:14;;;;;;;2.33;1.80;;;;;;;;;;5103488;28;20555;-63
2021/10/23 05:32:39;;;;;;;2.50;1.77;;;;;;;;;;5100360;28;20053;-63
2021/10/23 05:35:05;;;;;;;2.50;2.00;;;;;;;;;;5103862;28;20032;-65
2021/10/23 05:37:31;;;;;;;3.22;1.75;;;;;;;;;;5101855;28;20031;-64
2021/10/23 05:39:56;;;;;;;8.73;4.88;;;;;;;;;;5103498;28;20168;-64
2021/10/23 05:42:21;;;;;;;8.23;4.07;;;;;;;;;;5104247;28;20122;-63
2021/10/23 05:44:47;;;;;;;7.95;6.82;;;;;;;;;;5103235;28;20028;-65
2021/10/23 05:47:12;;;;;;;4.40;2.05;;;;;;;;;;5101189;28;20064;-64
2021/10/23 05:49:38;;;;;;;2.58;1.67;;;;;;;;;;5103797;28;20024;-63
2021/10/23 05:52:03;;;;;;;3.38;2.15;;;;;;;;;;5099077;28;20039;-64
2021/10/23 05:54:29;;;;;;;2.67;1.98;;;;;;;;;;5102168;28;20036;-65
2021/10/23 05:56:54;;;;;;;2.72;1.80;;;;;;;;;;5085116;28;20123;-64
2021/10/23 05:59:22;;;;;;;3.22;2.35;;;;;;;;;;5103541;28;20031;-64
2021/10/23 06:01:55;;;;;;;3.15;2.17;;;;;;;;;;5099552;28;20413;-64
2021/10/23 06:04:21;;;;;;;2.60;2.10;;;;;;;;;;5104374;28;20533;-64
2021/10/23 06:06:46;;;;;;;2.20;1.58;;;;;;;;;;5103305;28;20145;-65
2021/10/23 06:09:11;;;;;;;3.03;2.10;;;;;;;;;;5097822;28;20374;-63
2021/10/23 06:11:37;;;;;;;2.55;1.73;;;;;;;;;;5101485;28;20126;-63
2021/10/23 06:14:03;;;;;;;2.17;1.67;;;;;;;;;;5103366;28;20065;-63
2021/10/23 06:16:28;;;;;;;2.60;2.10;;;;;;;;;;5102887;28;20039;-62
2021/10/23 06:18:54;;;;;;;2.60;1.90;;;;;;;;;;5085948;28;20035;-62
2021/10/23 06:21:20;;;;;;;4.75;2.30;;;;;;;;;;5103146;28;20030;-64
2021/10/23 06:23:45;;;;;;;2.83;2.00;;;;;;;;;;5103045;28;20047;-63
2021/10/23 06:26:11;;;;;;;7.00;2.75;;;;;;;;;;5103536;28;20121;-62
2021/10/23 06:28:36;;;;;;;3.30;2.40;;;;;;;;;;5099579;28;20027;-62
2021/10/23 06:31:06;;;;;;;4.53;2.17;;;;;;;;;;5099974;28;20031;-62
2021/10/23 06:33:33;;;;;;;2.38;1.88;;;;;;;;;;5102108;28;20039;-63
2021/10/23 06:35:59;;;;;;;2.50;1.80;;;;;;;;;;5100912;28;20038;-62
2021/10/23 06:38:25;;;;;;;2.40;1.80;;;;;;;;;;5102774;28;20039;-63
2021/10/23 06:40:50;;;;;;;3.00;2.08;;;;;;;;;;5107590;28;20024;-63
2021/10/23 06:43:16;;;;;;;4.68;3.83;;;;;;;;;;5105852;28;20118;-62
2021/10/23 06:45:41;;;;;;;6.32;5.53;;;;;;;;;;5105125;28;20035;-64
2021/10/23 06:48:08;;;;;;;6.38;4.05;;;;;;;;;;5088790;28;20088;-64
2021/10/23 06:50:33;;;;;;;2.83;2.35;;;;;;;;;;5089424;28;20051;-64
2021/10/23 06:52:59;;;;;;;3.10;2.13;;;;;;;;;;5105383;28;20063;-64
2021/10/23 06:55:24;;;;;;;3.00;2.15;;;;;;;;;;5104966;28;20027;-64
2021/10/23 06:57:50;;;;;;;3.10;2.17;;;;;;;;;;5104015;28;20220;-64
2021/10/23 07:00:16;;;;;;;2.92;2.13;;;;;;;;;;5104651;28;20031;-64
2021/10/23 07:02:43;;;;;;;2.83;2.22;;;;;;;;;;5105148;28;20415;-64
2021/10/23 07:05:14;;;;;;;5.32;2.17;;;;;;;;;;5104479;28;20038;-64
2021/10/23 07:07:40;;;;;;;2.58;2.10;;;;;;;;;;5089920;28;20457;-65
2021/10/23 07:10:07;;;;;;;4.20;2.97;;;;;;;;;;5104134;28;20051;-65
2021/10/23 07:12:32;;;;;;;3.28;2.63;;;;;;;;;;5105556;28;20019;-63
2021/10/23 07:14:58;;;;;;;4.00;2.85;;;;;;;;;;5105135;28;20396;-65
2021/10/23 07:17:23;;;;;;;4.35;2.30;;;;;;;;;;5105547;27;20865;-65
2021/10/23 07:19:49;;;;;;;3.25;2.45;;;;;;;;;;5103692;28;20117;-65
2021/10/23 07:22:15;;;;;;;2.80;2.15;;;;;;;;;;5101659;28;20424;-63
2021/10/23 07:24:41;;;;;;;3.22;2.75;;;;;;;;;;5105895;28;20172;-63
2021/10/23 07:27:06;;;;;;;2.80;2.22;;;;;;;;;;5105162;28;20469;-65
2021/10/23 07:29:32;;;;;;;2.92;2.47;;;;;;;;;;5103508;28;20043;-63
2021/10/23 07:31:57;;;;;;;2.85;2.35;;;;;;;;;;5106147;28;20112;-64
2021/10/23 07:34:22;;;;;;;4.30;2.58;;;;;;;;;;5100781;28;20102;-63
2021/10/23 07:36:48;;;;;;;2.60;2.13;;;;;;;;;;5104439;28;20465;-65
2021/10/23 07:39:14;;;;;;;11.32;3.00;;;;;;;;;;5106497;28;20038;-65
2021/10/23 07:41:40;;;;;;;3.58;2.25;;;;;;;;;;5104621;28;20038;-65
2021/10/23 07:44:08;;;;;;;2.60;2.00;;;;;;;;;;5102589;28;20024;-65
2021/10/23 07:46:33;;;;;;;3.17;2.78;;;;;;;;;;5104444;28;20027;-64
2021/10/23 07:49:00;;;;;;;3.20;2.38;;;;;;;;;;5106602;28;20027;-65
2021/10/23 07:51:25;;;;;;;2.97;2.50;;;;;;;;;;5104936;28;20027;-64
2021/10/23 07:53:51;;;;;;;3.17;2.80;;;;;;;;;;5105006;28;20058;-64
2021/10/23 07:56:16;;;;;;;4.78;3.45;;;;;;;;;;5105888;28;20069;-65
2021/10/23 07:58:42;;;;;;;3.42;2.92;;;;;;;;;;5102968;28;20456;-65
2021/10/23 08:01:07;;;;;;;8.77;4.93;;;;;;;;;;5103754;28;20035;-64
2021/10/23 08:03:33;;;;;;;4.13;3.28;;;;;;;;;;5105138;28;20517;-65
2021/10/23 08:05:58;;;;;;;4.13;2.53;;;;;;;;;;5103502;28;20027;-66
2021/10/23 08:08:24;;;;;;;3.20;2.58;;;;;;;;;;5103689;28;20028;-65
2021/10/23 08:10:49;;;;;;;3.38;2.67;;;;;;;;;;5103357;27;20375;-63
2021/10/23 08:13:14;;;;;;;2.90;2.42;;;;;;;;;;5102810;28;20039;-63
2021/10/23 08:15:40;;;;;;;3.13;2.58;;;;;;;;;;5106491;28;20034;-63
2021/10/23 08:18:05;;;;;;;2.92;2.20;;;;;;;;;;5104548;28;20047;-62
2021/10/23 08:20:33;;;;;;;4.07;3.40;;;;;;;;;;5103696;28;20039;-61
2021/10/23 08:23:00;;;;;;;7.50;2.83;;;;;;;;;;5104211;28;20040;-61
2021/10/23 08:25:26;;;;;;;4.63;3.15;;;;;;;;;;5100665;28;20027;-62
2021/10/23 08:27:51;;;;;;;3.40;2.80;;;;;;;;;;5103155;28;20055;-62
2021/10/23 08:30:18;;;;;;;2.85;2.25;;;;;;;;;;5104962;28;20036;-62
2021/10/23 08:32:45;;;;;;;4.55;3.45;;;;;;;;;;5103800;28;20039;-62
2021/10/23 08:35:15;;;;;;;2.97;2.50;;;;;;;;;;5103014;28;20027;-62
2021/10/23 08:37:41;;;;;;;3.23;2.50;;;;;;;;;;5104243;28;20099;-61
2021/10/23 08:40:08;;;;;;;3.95;2.65;;;;;;;;;;5104027;28;20093;-61
2021/10/23 08:42:33;;;;;;;8.55;2.20;;;;;;;;;;5106237;28;20036;-61
2021/10/23 08:45:03;;;;;;;2.92;2.42;;;;;;;;;;5103664;28;20365;-62
2021/10/23 08:47:29;;;;;;;4.20;3.10;;;;;;;;;;5102523;28;20349;-62
2021/10/23 08:49:57;;;;;;;3.85;2.25;;;;;;;;;;5104868;28;20050;-63
2021/10/23 08:52:23;;;;;;;3.38;2.83;;;;;;;;;;5105413;28;20032;-63
2021/10/23 08:54:48;;;;;;;2.67;2.05;;;;;;;;;;5105071;28;20042;-63
2021/10/23 08:57:13;;;;;;;12.02;2.55;;;;;;;;;;5081501;28;20019;-63
2021/10/23 08:59:40;;;;;;;3.03;2.25;;;;;;;;;;5103868;28;20195;-63
2021/10/23 09:02:07;;;;;;;3.28;2.75;;;;;;;;;;5098922;28;20062;-63
2021/10/23 09:04:33;;;;;;;2.72;2.15;;;;;;;;;;5104486;28;20035;-63
2021/10/23 09:07:11;;;;;;;3.97;2.30;;;;;;;;;;5102470;28;20048;-63
2021/10/23 09:09:53;;;;;;;3.10;2.30;;;;;;;;;;5102123;28;20404;-62
2021/10/23 09:12:23;;;;;;;3.25;2.47;;;;;;;;;;5102496;28;20160;-66
2021/10/23 09:15:10;;;;;;;4.22;3.13;;;;;;;;;;5101170;28;20043;-67
2021/10/23 09:17:36;;;;;;;2.83;2.33;;;;;;;;;;5103345;28;20039;-66
2021/10/23 09:20:13;;;;;;;3.45;2.60;;;;;;;;;;5102605;28;20174;-67
2021/10/23 09:22:41;;;;;;;3.42;2.70;;;;;;;;;;5103328;28;20027;-67
2021/10/23 09:25:18;;;;;;;4.90;2.80;;;;;;;;;;5104274;28;20042;-67
2021/10/23 09:28:12;;;;;;;5.18;2.40;;;;;;;;;;5101277;28;20131;-66
2021/10/23 09:30:48;;;;;;;5.43;2.65;;;;;;;;;;5102328;28;20049;-67
2021/10/23 09:33:15;;;;;;;4.15;2.80;;;;;;;;;;5103903;28;20039;-66
2021/10/23 09:35:43;;;;;;;2.70;2.10;;;;;;;;;;5101242;28;20035;-66
2021/10/23 09:38:12;;;;;;;3.13;2.30;;;;;;;;;;5100416;28;20283;-66
2021/10/23 09:40:38;;;;;;;2.90;1.95;;;;;;;;;;5104454;28;20031;-67
2021/10/23 09:43:20;;;;;;;3.28;2.55;;;;;;;;;;5102240;28;20100;-67
2021/10/23 09:46:00;;;;;;;2.95;2.33;;;;;;;;;;5100703;28;20365;-67
2021/10/23 09:48:50;;;;;;;2.63;1.98;;;;;;;;;;5100002;28;20067;-67
2021/10/23 09:51:19;;;;;;;5.40;3.15;;;;;;;;;;5102627;28;20082;-63
2021/10/23 09:53:47;;;;;;;4.57;3.50;;;;;;;;;;5100549;28;20058;-63
2021/10/23 09:56:26;;;;;;;2.92;2.33;;;;;;;;;;5102308;28;20058;-63
2021/10/23 09:59:09;;;;;;;4.53;2.88;;;;;;;;;;5099837;28;20028;-63
2021/10/23 10:01:34;;;;;;;4.22;3.25;;;;;;;;;;5098238;28;20084;-61
2021/10/23 10:04:03;;;;;;;3.53;2.55;;;;;;;;;;5097251;28;20043;-62
2021/10/23 10:06:29;;;;;;;3.30;2.58;;;;;;;;;;5098406;28;20024;-62
2021/10/23 10:08:55;;;;;;;3.00;2.47;;;;;;;;;;5097208;28;20384;-63
2021/10/23 10:11:22;;;;;;;3.60;2.33;;;;;;;;;;5096848;28;20051;-63
2021/10/23 10:13:49;;;;;;;3.67;3.05;;;;;;;;;;5083205;28;20088;-63
2021/10/23 10:16:15;;;;;;;2.80;2.22;;;;;;;;;;5103682;28;20460;-63
2021/10/23 10:18:42;;;;;;;2.72;2.10;;;;;;;;;;5105255;27;20509;-64
2021/10/23 10:21:17;;;;;;;3.85;2.47;;;;;;;;;;5107563;27;20035;-63
2021/10/23 10:23:44;;;;;;;3.90;2.67;;;;;;;;;;5105603;27;20641;-63
2021/10/23 10:26:26;;;;;;;2.83;2.13;;;;;;;;;;5105964;28;20023;-63
2021/10/23 10:29:14;;;;;;;5.60;2.67;;;;;;;;;;5090843;27;20038;-63
2021/10/23 10:31:42;;;;;;;2.78;2.20;;;;;;;;;;5104325;27;20429;-63
2021/10/23 10:34:13;;;;;;;4.35;2.90;;;;;;;;;;5104181;27;20107;-62
2021/10/23 10:42:50;;;;;;;3.00;2.45;;;;;;;;;;5103306;27;20596;-63
2021/10/23 10:45:31;;;;;;;2.80;2.28;;;;;;;;;;5104221;27;20504;-63
2021/10/23 10:48:37;;;;;;;4.38;3.33;;;;;;;;;;5103522;27;20027;-63
2021/10/23 10:51:08;;;;;;;4.60;2.92;;;;;;;;;;5101116;27;20039;-62
2021/10/23 10:53:40;;;;;;;3.80;2.65;;;;;;;;;;5105506;27;21257;-63
2021/10/23 10:56:08;;;;;;;2.75;2.17;;;;;;;;;;5083857;28;20159;-63
2021/10/23 10:58:48;;;;;;;2.80;2.13;;;;;;;;;;5087534;27;20044;-63
2021/10/23 11:01:25;;;;;;;3.25;2.10;;;;;;;;;;5103351;27;20035;-64
2021/10/23 11:03:55;;;;;;;2.58;2.10;;;;;;;;;;5105117;27;20035;-64
2021/10/23 11:06:39;;;;;;;4.28;2.90;;;;;;;;;;5104342;27;20577;-64
2021/10/23 11:09:16;;;;;;;3.15;2.22;;;;;;;;;;5102705;27;20047;-64
2021/10/23 11:11:44;;;;;;;2.53;1.95;;;;;;;;;;5103992;27;20038;-64
2021/10/23 11:14:19;;;;;;;3.25;2.63;;;;;;;;;;5103611;27;20114;-62
2021/10/23 11:16:55;;;;;;;2.60;2.10;;;;;;;;;;5104192;27;20039;-63
2021/10/23 11:19:21;;;;;;;2.40;1.75;;;;;;;;;;5085656;27;20467;-63
2021/10/23 11:21:49;;;;;;;2.60;2.00;;;;;;;;;;5103287;27;20032;-63
2021/10/23 11:24:15;;;;;;;3.00;2.40;;;;;;;;;;5104548;27;20581;-63
2021/10/23 11:26:50;;;;;;;4.00;2.38;;;;;;;;;;5104131;28;20027;-63
2021/10/23 11:29:27;;;;;;;2.40;1.70;;;;;;;;;;5080358;28;20036;-63
2021/10/23 11:31:53;;;;;;;2.90;2.20;;;;;;;;;;5105385;27;20027;-63
2021/10/23 11:34:21;;;;;;;2.70;2.10;;;;;;;;;;5103116;27;20381;-63
2021/10/23 11:37:06;;;;;;;5.50;2.33;;;;;;;;;;5105303;27;20040;-63
2021/10/23 11:39:36;;;;;;;2.50;1.90;;;;;;;;;;5086875;28;20078;-63
2021/10/23 11:42:20;;;;;;;2.40;1.70;;;;;;;;;;5103857;27;20032;-63
2021/10/23 11:44:46;;;;;;;2.45;1.80;;;;;;;;;;5102368;27;20042;-63
2021/10/23 11:47:17;;;;;;;2.50;1.90;;;;;;;;;;5103572;28;20054;-63
2021/10/23 11:49:42;;;;;;;2.50;1.92;;;;;;;;;;5104694;28;20073;-63
2021/10/23 11:52:09;;;;;;;2.55;1.90;;;;;;;;;;5104519;27;20118;-63
2021/10/23 11:54:45;;;;;;;2.67;2.22;;;;;;;;;;5103963;27;20495;-63
2021/10/23 11:57:30;;;;;;;3.20;2.17;;;;;;;;;;5103263;27;20023;-63
2021/10/23 11:59:55;;;;;;;2.30;1.70;;;;;;;;;;5103844;27;20118;-63
2021/10/23 12:02:21;;;;;;;2.60;1.65;;;;;;;;;;5104439;28;20591;-63
2021/10/23 12:04:47;;;;;;;3.75;2.67;;;;;;;;;;5104872;27;20039;-63
2021/10/23 12:07:31;;;;;;;3.88;2.35;;;;;;;;;;5105069;27;20028;-63
2021/10/23 12:10:04;;;;;;;2.45;1.73;;;;;;;;;;5103366;28;20042;-63
2021/10/23 12:12:29;;;;;;;2.20;1.50;;;;;;;;;;5103191;27;20038;-63
2021/10/23 12:14:55;;;;;;;3.90;2.00;;;;;;;;;;5103278;27;20913;-62
2021/10/23 12:17:25;;;;;;;2.65;2.05;;;;;;;;;;5085408;28;20035;-63
2021/10/23 12:19:50;;;;;;;2.77;2.07;;;;;;;;;;5103391;27;20066;-63
2021/10/23 12:22:16;;;;;;;3.53;2.13;;;;;;;;;;5103017;27;20437;-63
2021/10/23 12:24:50;;;;;;;4.90;2.30;;;;;;;;;;5101970;27;21412;-63
2021/10/23 12:27:27;;;;;;;5.13;1.88;;;;;;;;;;5102913;27;20815;-63
2021/10/23 12:29:55;;;;;;;2.45;1.80;;;;;;;;;;5102582;28;20737;-63
2021/10/23 12:32:42;;;;;;;2.72;2.00;;;;;;;;;;5101992;28;20035;-65
2021/10/23 12:35:24;;;;;;;2.75;2.20;;;;;;;;;;5103169;27;20036;-62
2021/10/23 12:38:00;;;;;;;2.72;2.13;;;;;;;;;;5101904;27;20486;-61
2021/10/23 12:40:36;;;;;;;3.38;1.88;;;;;;;;;;5103570;27;20036;-62
2021/10/23 12:43:09;;;;;;;2.50;1.75;;;;;;;;;;5104131;27;20028;-62
2021/10/23 12:45:43;;;;;;;2.42;1.95;;;;;;;;;;5101976;27;20043;-62
2021/10/23 12:48:12;;;;;;;12.52;3.80;;;;;;;;;;5102213;27;20473;-62
2021/10/23 12:50:38;;;;;;;2.53;1.80;;;;;;;;;;5101949;27;20465;-61
2021/10/23 12:53:04;;;;;;;6.00;2.15;;;;;;;;;;5103568;27;20127;-64
2021/10/23 12:55:30;;;;;;;2.83;2.13;;;;;;;;;;5100705;27;20103;-64
2021/10/23 12:57:55;;;;;;;2.97;2.17;;;;;;;;;;5103188;28;20027;-60
2021/10/23 13:00:22;;;;;;;2.53;1.70;;;;;;;;;;5103134;28;20052;-61
2021/10/23 13:02:47;;;;;;;4.50;2.22;;;;;;;;;;5103184;28;20036;-61
2021/10/23 13:05:13;;;;;;;2.60;1.98;;;;;;;;;;5103333;28;20149;-62
2021/10/23 13:07:39;;;;;;;3.13;2.65;;;;;;;;;;5104418;28;20431;-62
2021/10/23 13:10:07;;;;;;;3.13;2.03;;;;;;;;;;5089929;28;20028;-62
2021/10/23 13:12:34;;;;;;;3.20;2.13;;;;;;;;;;5090274;28;20059;-61
2021/10/23 13:15:00;;;;;;;4.80;2.15;;;;;;;;;;5102195;28;20067;-62
2021/10/23 13:17:25;;;;;;;2.75;1.95;;;;;;;;;;5099057;28;20055;-61
2021/10/23 13:19:51;;;;;;;2.47;1.85;;;;;;;;;;5101710;28;20118;-61
2021/10/23 13:22:16;;;;;;;2.72;1.83;;;;;;;;;;5105331;28;20032;-61
2021/10/23 13:24:42;;;;;;;3.22;2.40;;;;;;;;;;5106813;28;20035;-63
2021/10/23 13:27:07;;;;;;;2.53;1.92;;;;;;;;;;5104398;28;20104;-61
2021/10/23 13:29:33;;;;;;;2.53;1.88;;;;;;;;;;5099756;28;20028;-60
2021/10/23 13:31:59;;;;;;;2.40;1.60;;;;;;;;;;5105102;28;20038;-63
2021/10/23 13:34:25;;;;;;;2.63;1.92;;;;;;;;;;5104723;28;20119;-63
2021/10/23 13:36:50;;;;;;;2.33;1.75;;;;;;;;;;5103595;28;20099;-61
2021/10/23 13:39:15;;;;;;;2.50;1.77;;;;;;;;;;5106329;28;20027;-63
2021/10/23 13:41:42;;;;;;;2.50;1.90;;;;;;;;;;5103765;28;20032;-62
2021/10/23 13:44:07;;;;;;;2.45;1.75;;;;;;;;;;5105221;28;20077;-62
2021/10/23 13:46:33;;;;;;;2.42;2.00;;;;;;;;;;5104834;28;20412;-62
2021/10/23 13:48:59;;;;;;;2.40;1.75;;;;;;;;;;5101243;28;20031;-61
2021/10/23 13:51:25;;;;;;;2.70;2.03;;;;;;;;;;5103237;28;20059;-61
2021/10/23 13:53:51;;;;;;;2.85;2.22;;;;;;;;;;5098715;28;20036;-61
2021/10/23 13:56:16;;;;;;;3.03;2.30;;;;;;;;;;5099668;28;20572;-61
2021/10/23 13:58:42;;;;;;;8.02;2.50;;;;;;;;;;5103999;28;20406;-62
2021/10/23 14:01:07;;;;;;;3.15;1.92;;;;;;;;;;5101060;28;20031;-61
2021/10/23 14:03:33;;;;;;;2.45;1.80;;;;;;;;;;5100709;28;20031;-61
2021/10/23 14:05:58;;;;;;;2.30;1.60;;;;;;;;;;5105377;28;20039;-61
2021/10/23 14:08:24;;;;;;;2.47;1.73;;;;;;;;;;5102589;28;20039;-61
2021/10/23 14:10:50;;;;;;;3.28;2.65;;;;;;;;;;5103029;28;20036;-61
2021/10/23 14:13:15;;;;;;;3.17;1.85;;;;;;;;;;5102996;28;20040;-61
2021/10/23 14:15:41;;;;;;;3.45;2.10;;;;;;;;;;5106005;28;20145;-61
2021/10/23 14:18:10;;;;;;;3.03;2.20;;;;;;;;;;5105719;28;20117;-61
2021/10/23 14:20:37;;;;;;;2.63;1.90;;;;;;;;;;5101572;28;20036;-61
2021/10/23 14:23:08;;;;;;;2.33;1.80;;;;;;;;;;5099813;28;20054;-61
2021/10/23 14:25:34;;;;;;;3.78;2.28;;;;;;;;;;5106298;28;20042;-61
2021/10/23 14:28:09;;;;;;;2.40;1.70;;;;;;;;;;5098944;28;20032;-62
2021/10/23 14:30:34;;;;;;;2.50;2.03;;;;;;;;;;5103942;28;20392;-61
2021/10/23 14:33:00;;;;;;;2.78;2.15;;;;;;;;;;5105488;28;20126;-61
2021/10/23 14:35:25;;;;;;;2.30;1.55;;;;;;;;;;5099146;28;20437;-61
2021/10/23 14:37:51;;;;;;;3.90;1.90;;;;;;;;;;5083338;28;20073;-62
2021/10/23 14:40:16;;;;;;;2.47;1.70;;;;;;;;;;5102679;28;20055;-61
2021/10/23 14:42:42;;;;;;;3.67;2.20;;;;;;;;;;5099044;28;20036;-61
2021/10/23 14:45:08;;;;;;;2.45;1.75;;;;;;;;;;5099747;28;20110;-62
2021/10/23 14:47:33;;;;;;;6.30;2.15;;;;;;;;;;5103045;28;20436;-61
2021/10/23 14:49:59;;;;;;;2.35;1.77;;;;;;;;;;5104530;28;20338;-61
2021/10/23 14:52:25;;;;;;;2.50;1.92;;;;;;;;;;5100347;28;20031;-61